Time;durP1;ratioP1;P1;durP2;ratioP2;P2;SDS_P1;SDS_P2;PMS_P1;PMS_P2;Temp;Humidity;BMP_temperature;BMP_pressure;BME280_temperature;BME280_humidity;BME280_pressure;Samples;Min_cycle;Max_cycle;Signal;HPM_P1;HPM_P2
2022/06/10 00:00:21;;;;;;;2.95;1.00;;;21.50;61.20;;;;;;5055027;28;20076;-62
2022/06/10 00:02:47;;;;;;;2.97;0.90;;;21.50;61.20;;;;;;5054521;28;20044;-62
2022/06/10 00:05:13;;;;;;;3.80;0.70;;;21.50;61.20;;;;;;5053751;28;20067;-62
2022/06/10 00:07:39;;;;;;;2.38;0.77;;;21.50;61.20;;;;;;5055135;28;20055;-62
2022/06/10 00:10:05;;;;;;;3.20;1.10;;;21.50;61.20;;;;;;5072111;28;20127;-62
2022/06/10 00:12:31;;;;;;;2.55;0.90;;;21.50;61.20;;;;;;5073491;28;20601;-62
2022/06/10 00:14:56;;;;;;;1.90;0.70;;;21.50;61.20;;;;;;5074616;28;20083;-62
2022/06/10 00:17:22;;;;;;;2.05;0.75;;;21.50;61.20;;;;;;5073143;28;20123;-62
2022/06/10 00:19:47;;;;;;;2.72;0.90;;;21.40;61.10;;;;;;5073662;28;20132;-62
2022/06/10 00:22:13;;;;;;;3.75;0.93;;;21.50;61.10;;;;;;5075108;28;20105;-63
2022/06/10 00:24:39;;;;;;;2.17;0.82;;;21.40;61.10;;;;;;5073822;28;20131;-63
2022/06/10 00:27:04;;;;;;;2.75;1.00;;;21.40;61.10;;;;;;5074653;28;20044;-63
2022/06/10 00:29:31;;;;;;;3.40;0.80;;;21.40;61.20;;;;;;5074913;28;20043;-62
2022/06/10 00:31:57;;;;;;;3.42;0.82;;;21.50;61.20;;;;;;5073779;28;20084;-62
2022/06/10 00:34:23;;;;;;;1.80;0.70;;;21.40;61.10;;;;;;5073561;28;20083;-62
2022/06/10 00:36:49;;;;;;;2.47;0.90;;;21.40;61.70;;;;;;5074331;28;20441;-63
2022/06/10 00:39:14;;;;;;;1.80;0.70;;;21.40;61.10;;;;;;5073394;28;20426;-63
2022/06/10 00:41:44;;;;;;;3.55;1.10;;;21.40;61.10;;;;;;5074402;28;20074;-62
2022/06/10 00:44:33;;;;;;;2.45;0.80;;;21.50;61.10;;;;;;5073292;28;20040;-63
2022/06/10 00:47:00;;;;;;;3.10;1.00;;;21.40;61.00;;;;;;5072612;28;20044;-62
2022/06/10 00:49:26;;;;;;;2.55;1.10;;;21.40;61.10;;;;;;5073431;28;20480;-62
2022/06/10 00:51:53;;;;;;;3.65;0.98;;;21.40;61.10;;;;;;5072891;28;20101;-62
2022/06/10 00:54:22;;;;;;;2.25;0.80;;;21.40;61.10;;;;;;5072538;28;20052;-62
2022/06/10 00:57:03;;;;;;;2.17;0.90;;;21.40;61.10;;;;;;5073767;28;20040;-63
2022/06/10 00:59:33;;;;;;;1.90;0.70;;;21.40;61.10;;;;;;5072092;28;20503;-62
2022/06/10 01:02:02;;;;;;;2.85;0.95;;;21.40;61.10;;;;;;5072838;28;20052;-63
2022/06/10 01:04:28;;;;;;;2.13;0.70;;;21.40;61.10;;;;;;5072955;28;20044;-62
2022/06/10 01:06:54;;;;;;;2.85;0.80;;;21.30;61.00;;;;;;5072981;28;20094;-62
2022/06/10 01:09:20;;;;;;;2.08;0.65;;;21.30;61.00;;;;;;5073416;28;20122;-63
2022/06/10 01:12:31;;;;;;;2.17;1.00;;;21.30;61.00;;;;;;5073452;28;20079;-62
2022/06/10 01:15:13;;;;;;;2.42;0.93;;;21.30;61.00;;;;;;5017964;28;20050;-63
2022/06/10 01:17:57;;;;;;;2.50;0.80;;;21.30;61.00;;;;;;5066739;28;20079;-62
2022/06/10 01:20:28;;;;;;;2.75;0.98;;;21.30;61.10;;;;;;5073279;28;20496;-62
2022/06/10 01:23:00;;;;;;;2.17;0.90;;;21.30;61.00;;;;;;5073219;28;20091;-62
2022/06/10 01:25:39;;;;;;;2.03;0.70;;;21.30;61.00;;;;;;5073178;28;20136;-63
2022/06/10 01:28:28;;;;;;;2.55;0.80;;;21.30;61.00;;;;;;5071856;28;20480;-62
2022/06/10 01:31:08;;;;;;;2.30;0.70;;;21.30;61.00;;;;;;5071134;28;20058;-62
2022/06/10 01:33:37;;;;;;;3.60;0.90;;;21.30;61.00;;;;;;5072790;28;20044;-62
2022/06/10 01:36:30;;;;;;;2.08;0.70;;;21.30;61.00;;;;;;5071858;28;20192;-62
2022/06/10 01:39:23;;;;;;;1.77;0.70;;;21.30;60.90;;;;;;5072162;28;20044;-62
2022/06/10 01:41:58;;;;;;;2.63;0.75;;;21.30;61.00;;;;;;5072121;28;20825;-62
2022/06/10 01:44:38;;;;;;;2.63;1.05;;;21.30;61.00;;;;;;5073223;28;20036;-63
2022/06/10 01:47:07;;;;;;;2.85;0.70;;;21.30;61.00;;;;;;5071676;28;20135;-62
2022/06/10 01:49:43;;;;;;;1.83;0.93;;;21.20;60.90;;;;;;5071074;28;20040;-62
2022/06/10 01:52:19;;;;;;;3.15;0.80;;;21.30;61.00;;;;;;5073351;28;20080;-63
2022/06/10 01:54:57;;;;;;;1.83;0.73;;;21.20;60.90;;;;;;5072614;28;20106;-62
2022/06/10 01:57:41;;;;;;;2.22;0.70;;;21.20;60.90;;;;;;5071436;28;20040;-62
2022/06/10 02:00:13;;;;;;;2.55;0.75;;;21.20;61.00;;;;;;5071828;28;20150;-62
2022/06/10 02:02:41;;;;;;;1.70;0.80;;;21.20;60.90;;;;;;5069930;28;20474;-63
2022/06/10 02:05:10;;;;;;;2.05;0.90;;;21.20;60.90;;;;;;5072430;28;20117;-63
2022/06/10 02:07:45;;;;;;;1.13;0.70;;;21.20;60.90;;;;;;5071695;28;20044;-63
2022/06/10 02:10:15;;;;;;;1.50;0.70;;;21.20;60.90;;;;;;5070353;28;20118;-63
2022/06/10 02:12:43;;;;;;;2.13;0.80;;;21.20;60.90;;;;;;5071248;28;20483;-63
2022/06/10 02:15:23;;;;;;;1.98;1.02;;;21.20;60.90;;;;;;5071425;28;20500;-63
2022/06/10 02:17:52;;;;;;;2.03;0.80;;;21.20;60.90;;;;;;5070591;28;20048;-63
2022/06/10 02:20:20;;;;;;;2.15;0.80;;;21.20;60.90;;;;;;5071911;28;20037;-63
2022/06/10 02:22:46;;;;;;;3.08;1.25;;;21.20;61.00;;;;;;5072180;28;20130;-63
2022/06/10 02:25:14;;;;;;;1.98;0.80;;;21.20;60.90;;;;;;5070960;28;20083;-63
2022/06/10 02:27:48;;;;;;;1.27;0.70;;;21.20;61.00;;;;;;5071618;28;20048;-62
2022/06/10 02:30:28;;;;;;;3.17;1.25;;;21.20;61.00;;;;;;5070585;28;20041;-63
2022/06/10 02:32:54;;;;;;;2.22;0.80;;;21.20;61.00;;;;;;5071167;28;20044;-62
2022/06/10 02:35:20;;;;;;;2.78;0.80;;;21.20;60.90;;;;;;5071284;28;20044;-62
2022/06/10 02:38:03;;;;;;;2.35;0.70;;;21.20;61.00;;;;;;5071556;28;20064;-62
2022/06/10 02:40:30;;;;;;;2.17;0.70;;;21.20;61.00;;;;;;5072207;28;20044;-62
2022/06/10 02:43:11;;;;;;;2.65;0.70;;;21.20;61.00;;;;;;5073719;28;20510;-62
2022/06/10 02:46:15;;;;;;;2.20;0.75;;;21.10;60.90;;;;;;5077117;28;20129;-63
2022/06/10 02:48:47;;;;;;;2.90;0.90;;;21.10;60.90;;;;;;5077051;28;20388;-62
2022/06/10 02:51:14;;;;;;;2.03;0.70;;;21.10;61.00;;;;;;5077744;28;20408;-62
2022/06/10 02:53:40;;;;;;;1.55;0.60;;;21.10;60.90;;;;;;5076997;28;20060;-62
2022/06/10 02:56:20;;;;;;;2.03;0.70;;;21.10;61.00;;;;;;5079078;28;20037;-62
2022/06/10 03:01:36;;;;;;;1.83;0.80;;;21.10;61.00;;;;;;5078101;28;20049;-63
2022/06/10 03:04:35;;;;;;;1.45;0.70;;;21.10;61.00;;;;;;5077691;28;20044;-62
2022/06/10 03:07:13;;;;;;;3.15;0.82;;;21.10;60.90;;;;;;5076741;28;20048;-62
2022/06/10 03:09:50;;;;;;;1.77;0.80;;;21.10;61.00;;;;;;5079143;28;20044;-63
2022/06/10 03:12:40;;;;;;;2.88;0.68;;;21.10;61.10;;;;;;5078982;28;20044;-62
2022/06/10 03:15:15;;;;;;;2.40;0.80;;;21.10;61.10;;;;;;5076893;28;20450;-62
2022/06/10 03:18:16;;;;;;;1.85;0.73;;;21.10;61.10;;;;;;5078147;28;20048;-62
2022/06/10 03:21:16;;;;;;;2.28;0.90;;;21.10;61.00;;;;;;5078785;28;20056;-62
2022/06/10 03:24:05;;;;;;;2.10;0.82;;;21.10;61.10;;;;;;5078352;28;20065;-62
2022/06/10 03:26:40;;;;;;;1.88;0.77;;;21.10;61.10;;;;;;5077805;28;20052;-62
2022/06/10 03:29:26;;;;;;;2.67;0.77;;;21.00;61.10;;;;;;5075642;28;20070;-62
2022/06/10 03:31:58;;;;;;;1.65;0.50;;;21.10;61.10;;;;;;5076986;28;20059;-62
2022/06/10 03:34:31;;;;;;;2.47;0.60;;;21.10;61.10;;;;;;5077296;28;20040;-62
2022/06/10 03:36:58;;;;;;;3.38;0.90;;;21.00;61.10;;;;;;5077075;28;20131;-62
2022/06/10 03:39:24;;;;;;;3.00;0.98;;;21.00;61.00;;;;;;5077784;28;20055;-62
2022/06/10 03:41:59;;;;;;;1.40;0.60;;;21.00;61.10;;;;;;5076694;28;20380;-62
2022/06/10 03:44:25;;;;;;;1.95;0.93;;;21.00;61.10;;;;;;5078665;28;20040;-61
2022/06/10 03:46:51;;;;;;;2.63;0.70;;;21.00;61.10;;;;;;5077271;28;20048;-62
2022/06/10 03:49:20;;;;;;;3.50;0.90;;;21.00;61.00;;;;;;5076326;28;20090;-62
2022/06/10 03:51:46;;;;;;;2.28;0.80;;;21.00;61.00;;;;;;5077011;28;20484;-62
2022/06/10 03:54:15;;;;;;;2.05;0.60;;;21.00;61.00;;;;;;5075045;28;20056;-62
2022/06/10 03:56:41;;;;;;;2.50;0.77;;;21.00;61.00;;;;;;5073014;28;20049;-62
2022/06/10 03:59:06;;;;;;;1.63;0.70;;;21.00;61.00;;;;;;5075407;28;20113;-62
2022/06/10 04:01:32;;;;;;;2.15;0.80;;;21.00;60.90;;;;;;5075159;28;20042;-62
2022/06/10 04:03:58;;;;;;;1.40;0.60;;;21.00;60.90;;;;;;5074136;28;20064;-63
2022/06/10 04:06:23;;;;;;;1.00;0.55;;;21.00;60.90;;;;;;5074188;28;20044;-62
2022/06/10 04:08:49;;;;;;;1.63;0.60;;;21.00;60.90;;;;;;5074654;28;20063;-63
2022/06/10 04:11:15;;;;;;;2.55;0.73;;;21.00;60.90;;;;;;5074090;28;20186;-62
2022/06/10 04:13:40;;;;;;;2.13;0.70;;;21.10;61.00;;;;;;5074936;28;20533;-62
2022/06/10 04:16:06;;;;;;;2.45;0.68;;;21.10;61.00;;;;;;5075277;28;20045;-62
2022/06/10 04:18:31;;;;;;;2.88;0.75;;;21.10;61.10;;;;;;5074301;28;20047;-62
2022/06/10 04:20:57;;;;;;;2.42;0.70;;;21.10;61.10;;;;;;5073451;28;20087;-62
2022/06/10 04:23:22;;;;;;;1.55;0.70;;;21.10;61.10;;;;;;5073949;28;20052;-62
2022/06/10 04:25:48;;;;;;;2.55;0.60;;;21.20;61.30;;;;;;5074369;28;20033;-62
2022/06/10 04:28:14;;;;;;;1.83;0.60;;;21.10;61.20;;;;;;5074300;28;20056;-62
2022/06/10 04:30:49;;;;;;;2.20;0.75;;;21.20;61.20;;;;;;5073796;28;20051;-62
2022/06/10 04:33:15;;;;;;;2.70;0.70;;;21.20;61.20;;;;;;5074415;28;20048;-62
2022/06/10 04:35:41;;;;;;;2.70;0.82;;;21.20;61.20;;;;;;5074072;28;20037;-62
2022/06/10 04:38:07;;;;;;;1.92;0.70;;;21.20;61.10;;;;;;5072690;28;20051;-62
2022/06/10 04:40:33;;;;;;;1.52;0.60;;;21.20;61.10;;;;;;5074731;28;20036;-63
2022/06/10 04:42:59;;;;;;;1.83;0.70;;;21.30;61.20;;;;;;5074039;28;20052;-62
2022/06/10 04:45:30;;;;;;;2.05;0.70;;;21.30;61.20;;;;;;5073888;28;20036;-63
2022/06/10 04:47:56;;;;;;;2.72;0.75;;;21.30;61.20;;;;;;5074411;28;20045;-62
2022/06/10 04:50:23;;;;;;;2.10;0.70;;;21.30;61.20;;;;;;5074508;28;20052;-61
2022/06/10 04:52:49;;;;;;;2.08;0.57;;;21.30;61.20;;;;;;5073074;28;20416;-62
2022/06/10 04:55:14;;;;;;;1.30;0.60;;;21.30;61.20;;;;;;5074444;28;20472;-62
2022/06/10 04:57:40;;;;;;;2.42;0.80;;;21.30;61.20;;;;;;5073507;28;20040;-62
2022/06/10 05:00:08;;;;;;;2.90;0.98;;;21.40;61.20;;;;;;5073391;28;20072;-62
2022/06/10 05:02:34;;;;;;;1.27;0.70;;;21.40;61.20;;;;;;5074132;28;20045;-62
2022/06/10 05:05:00;;;;;;;2.47;0.60;;;21.40;61.20;;;;;;5073451;28;20072;-62
2022/06/10 05:07:26;;;;;;;1.40;0.60;;;21.40;61.20;;;;;;5072778;28;20457;-62
2022/06/10 05:09:52;;;;;;;2.03;0.65;;;21.40;61.10;;;;;;5073764;28;20049;-62
2022/06/10 05:12:17;;;;;;;1.80;0.70;;;21.40;61.10;;;;;;5074102;28;20043;-62
2022/06/10 05:14:43;;;;;;;1.73;0.70;;;21.40;61.10;;;;;;5071618;28;20037;-63
2022/06/10 05:17:08;;;;;;;1.88;0.70;;;21.50;61.10;;;;;;5073801;28;20044;-62
2022/06/10 05:19:34;;;;;;;1.48;0.68;;;21.50;61.10;;;;;;5072948;28;20041;-63
2022/06/10 05:21:59;;;;;;;2.15;0.70;;;21.50;61.10;;;;;;5073753;28;20044;-62
2022/06/10 05:24:25;;;;;;;2.20;0.75;;;21.50;61.10;;;;;;5073339;28;20490;-62
2022/06/10 05:26:51;;;;;;;3.03;0.80;;;21.60;61.20;;;;;;5072672;28;20045;-62
2022/06/10 05:29:16;;;;;;;1.67;0.70;;;21.50;61.10;;;;;;5073525;28;20400;-62
2022/06/10 05:31:42;;;;;;;2.65;0.75;;;21.60;61.10;;;;;;5073383;28;20040;-64
2022/06/10 05:36:52;;;;;;;2.28;0.60;;;21.60;61.10;;;;;;5053350;28;20481;-62
2022/06/10 05:39:18;;;;;;;2.85;0.80;;;21.60;61.10;;;;;;5053733;28;20064;-63
2022/06/10 05:44:27;;;;;;;1.95;0.77;;;21.60;61.10;;;;;;5053416;28;20045;-63
2022/06/10 05:46:54;;;;;;;2.65;0.65;;;21.60;61.10;;;;;;5053177;28;20041;-63
2022/06/10 05:49:19;;;;;;;2.65;0.63;;;21.70;61.20;;;;;;5066699;28;20048;-62
2022/06/10 05:51:45;;;;;;;2.65;0.80;;;21.70;61.20;;;;;;5072850;28;20043;-62
2022/06/10 05:54:11;;;;;;;1.60;0.70;;;21.70;61.30;;;;;;5073497;28;20048;-62
2022/06/10 05:56:36;;;;;;;1.98;0.70;;;21.70;61.30;;;;;;5070976;28;20048;-63
2022/06/10 05:59:02;;;;;;;1.55;0.52;;;21.70;61.30;;;;;;5072649;28;20044;-63
2022/06/10 06:01:27;;;;;;;1.27;0.60;;;21.70;61.30;;;;;;5072810;28;20041;-63
2022/06/10 06:03:53;;;;;;;1.25;0.60;;;21.70;61.30;;;;;;5072056;28;20480;-63
2022/06/10 06:06:19;;;;;;;1.38;0.70;;;21.60;61.20;;;;;;5073028;28;20047;-63
2022/06/10 06:08:46;;;;;;;1.92;0.73;;;21.60;61.20;;;;;;5070570;28;20048;-63
2022/06/10 06:11:12;;;;;;;1.90;0.60;;;21.60;61.30;;;;;;5072846;28;20055;-63
2022/06/10 06:13:37;;;;;;;1.60;0.60;;;21.60;61.30;;;;;;5072711;28;20040;-63
2022/06/10 06:16:04;;;;;;;2.75;0.80;;;21.60;61.90;;;;;;5071524;28;20041;-63
2022/06/10 06:18:29;;;;;;;1.92;0.70;;;21.60;61.30;;;;;;5072078;28;20059;-63
2022/06/10 06:20:55;;;;;;;2.17;0.70;;;21.60;61.30;;;;;;5071811;28;20148;-63
2022/06/10 06:23:20;;;;;;;1.73;0.80;;;21.60;61.40;;;;;;5071706;28;20063;-63
2022/06/10 06:25:46;;;;;;;2.75;0.60;;;21.50;61.30;;;;;;5072369;28;20479;-63
2022/06/10 06:28:11;;;;;;;2.83;0.80;;;21.50;61.40;;;;;;5071291;28;20093;-63
2022/06/10 06:30:37;;;;;;;2.20;0.70;;;21.50;62.00;;;;;;5071281;28;20040;-63
2022/06/10 06:33:04;;;;;;;2.13;0.70;;;21.50;61.40;;;;;;5072195;28;20044;-63
2022/06/10 06:35:31;;;;;;;2.30;0.70;;;21.50;61.40;;;;;;5072350;28;20036;-63
2022/06/10 06:37:56;;;;;;;3.78;0.90;;;21.50;61.40;;;;;;5071493;28;20080;-63
2022/06/10 06:40:22;;;;;;;2.53;0.90;;;21.50;61.40;;;;;;5071952;28;20507;-63
2022/06/10 06:42:48;;;;;;;2.50;0.80;;;21.50;61.40;;;;;;5071177;28;20044;-63
2022/06/10 06:45:14;;;;;;;2.15;0.77;;;21.40;62.00;;;;;;5071517;28;20041;-63
2022/06/10 06:47:40;;;;;;;2.20;0.88;;;21.40;61.40;;;;;;5072476;28;20045;-63
2022/06/10 06:50:06;;;;;;;3.15;0.70;;;21.40;61.40;;;;;;5072501;28;20127;-63
2022/06/10 06:52:31;;;;;;;2.42;0.70;;;21.40;61.50;;;;;;5071859;28;20051;-63
2022/06/10 06:54:57;;;;;;;3.70;0.80;;;21.40;61.40;;;;;;5072149;28;20052;-63
2022/06/10 06:57:25;;;;;;;2.05;0.70;;;21.40;61.50;;;;;;5072137;28;20049;-62
2022/06/10 06:59:53;;;;;;;;;;;21.40;61.50;;;;;;5071348;28;20045;-63
2022/06/10 07:02:19;;;;;;;3.07;0.80;;;21.40;61.40;;;;;;5072360;28;20023;-62
2022/06/10 07:04:44;;;;;;;1.33;0.57;;;21.40;61.50;;;;;;5071934;28;20044;-63
2022/06/10 07:07:10;;;;;;;3.03;1.00;;;21.40;61.40;;;;;;5071633;28;20045;-63
2022/06/10 07:09:35;;;;;;;1.98;0.65;;;21.40;61.40;;;;;;5072387;28;20044;-63
2022/06/10 07:12:01;;;;;;;2.70;1.00;;;21.40;61.50;;;;;;5071913;28;20041;-63
2022/06/10 07:14:26;;;;;;;3.45;0.82;;;21.40;62.20;;;;;;5071384;28;20043;-63
2022/06/10 07:16:52;;;;;;;2.03;0.80;;;21.40;61.60;;;;;;5071732;28;20365;-63
2022/06/10 07:19:19;;;;;;;2.20;0.63;;;21.40;61.60;;;;;;5071308;28;20131;-63
2022/06/10 07:21:44;;;;;;;2.38;0.63;;;21.40;61.60;;;;;;5071566;28;20048;-63
2022/06/10 07:24:10;;;;;;;3.30;0.85;;;21.40;61.50;;;;;;5071692;28;20075;-63
2022/06/10 07:26:36;;;;;;;3.97;1.10;;;21.50;61.50;;;;;;5071153;28;20099;-63
2022/06/10 07:29:01;;;;;;;2.47;0.70;;;21.40;61.40;;;;;;5072703;28;20088;-63
2022/06/10 07:31:27;;;;;;;3.35;0.80;;;21.50;61.40;;;;;;5075706;28;20036;-63
2022/06/10 07:33:57;;;;;;;3.00;0.98;;;21.40;61.40;;;;;;5074421;28;20040;-63
2022/06/10 07:36:23;;;;;;;2.28;0.57;;;21.40;61.50;;;;;;5075759;28;20045;-63
2022/06/10 07:38:48;;;;;;;1.98;0.93;;;21.40;61.50;;;;;;5075185;28;20045;-63
2022/06/10 07:43:58;;;;;;;2.13;0.70;;;21.40;61.60;;;;;;5075334;28;20053;-63
2022/06/10 07:46:24;;;;;;;5.20;1.15;;;21.50;61.50;;;;;;5075499;28;20044;-63
2022/06/10 07:48:49;;;;;;;1.73;0.80;;;21.50;61.60;;;;;;5074328;28;20043;-63
2022/06/10 07:51:15;;;;;;;2.10;0.80;;;21.50;61.50;;;;;;5075360;28;20040;-63
2022/06/10 07:53:41;;;;;;;2.03;0.90;;;21.50;61.60;;;;;;5075168;28;20487;-63
2022/06/10 07:56:10;;;;;;;1.98;0.75;;;21.50;61.60;;;;;;5074356;28;20056;-63
2022/06/10 07:58:36;;;;;;;2.42;1.00;;;21.50;61.60;;;;;;5075324;28;20044;-63
2022/06/10 08:01:01;;;;;;;2.22;0.90;;;21.50;61.50;;;;;;5074684;28;20445;-63
2022/06/10 08:03:27;;;;;;;5.13;0.93;;;21.50;61.50;;;;;;5074462;28;20033;-61
2022/06/10 08:05:53;;;;;;;3.35;0.85;;;21.50;61.50;;;;;;5074910;28;20497;-61
2022/06/10 08:08:19;;;;;;;2.90;0.90;;;21.50;61.50;;;;;;5075261;28;20040;-62
2022/06/10 08:10:45;;;;;;;4.15;1.00;;;21.60;61.60;;;;;;5074352;28;20524;-62
2022/06/10 08:13:11;;;;;;;6.55;0.90;;;21.60;61.60;;;;;;5075206;28;20040;-62
2022/06/10 08:15:36;;;;;;;3.22;0.70;;;21.60;61.60;;;;;;5072736;28;20040;-62
2022/06/10 08:18:04;;;;;;;;;;;21.60;61.60;;;;;;5075077;28;20419;-62
2022/06/10 08:23:21;;;;;;;2.42;0.93;;;21.60;61.60;;;;;;5073644;28;20060;-62
2022/06/10 08:25:47;;;;;;;2.23;1.23;;;21.60;61.60;;;;;;5074245;28;20393;-62
2022/06/10 08:28:13;;;;;;;2.75;0.80;;;21.60;61.60;;;;;;5074778;28;20046;-62
2022/06/10 08:30:38;;;;;;;1.98;0.80;;;21.60;61.60;;;;;;5072290;28;20463;-62
2022/06/10 08:33:04;;;;;;;1.67;0.63;;;21.60;61.60;;;;;;5074554;28;20040;-62
2022/06/10 08:35:33;;;;;;;2.40;0.90;;;21.60;61.70;;;;;;5074531;28;20063;-62
2022/06/10 08:37:59;;;;;;;2.25;0.75;;;21.60;61.60;;;;;;5073526;28;20048;-62
2022/06/10 08:41:00;;;;;;;3.03;0.82;;;21.60;61.70;;;;;;5073414;28;20496;-62
2022/06/10 08:43:38;;;;;;;2.17;0.80;;;21.60;61.60;;;;;;5075610;28;20053;-62
2022/06/10 08:46:27;;;;;;;2.60;0.75;;;21.60;61.70;;;;;;5074078;28;20045;-63
2022/06/10 08:49:01;;;;;;;3.53;1.20;;;21.60;61.70;;;;;;5074158;28;20063;-62
2022/06/10 08:51:51;;;;;;;2.53;0.98;;;21.60;61.80;;;;;;5072562;28;20037;-63
2022/06/10 08:54:24;;;;;;;2.28;0.77;;;21.60;61.80;;;;;;5072918;28;20052;-63
2022/06/10 08:56:51;;;;;;;2.72;0.80;;;21.60;61.80;;;;;;5073520;28;20047;-63
2022/06/10 08:59:36;;;;;;;1.58;0.70;;;21.60;61.80;;;;;;5072093;28;20048;-62
2022/06/10 09:02:30;;;;;;;1.83;0.80;;;21.60;61.80;;;;;;5072780;28;20089;-63
2022/06/10 09:05:12;;;;;;;3.05;0.88;;;21.60;61.80;;;;;;5072077;28;20087;-62
2022/06/10 09:07:50;;;;;;;3.05;0.73;;;21.60;61.80;;;;;;5072586;28;20447;-62
2022/06/10 09:10:34;;;;;;;3.30;0.85;;;21.60;61.80;;;;;;5074312;28;20123;-62
2022/06/10 09:13:05;;;;;;;2.45;0.95;;;21.60;61.80;;;;;;5073008;28;20052;-62
2022/06/10 09:15:31;;;;;;;2.15;0.88;;;21.60;61.80;;;;;;5073751;28;20033;-62
2022/06/10 09:18:03;;;;;;;3.42;0.85;;;21.60;61.80;;;;;;5072184;28;20368;-62
2022/06/10 09:20:42;;;;;;;3.13;0.90;;;21.60;61.90;;;;;;5068142;28;20033;-62
2022/06/10 09:23:15;;;;;;;1.95;0.70;;;21.60;61.80;;;;;;5052982;28;20099;-62
2022/06/10 09:25:43;;;;;;;2.70;0.90;;;21.60;61.80;;;;;;5052937;28;20064;-63
2022/06/10 09:28:09;;;;;;;2.72;0.80;;;21.60;61.80;;;;;;5053613;28;20099;-63
2022/06/10 09:30:57;;;;;;;2.88;0.77;;;21.60;61.90;;;;;;5052090;28;20049;-62
2022/06/10 09:33:37;;;;;;;2.63;0.70;;;21.60;61.90;;;;;;5052591;28;20048;-63
2022/06/10 09:36:12;;;;;;;3.55;1.33;;;21.60;61.90;;;;;;5052941;28;20037;-63
2022/06/10 09:38:39;;;;;;;3.55;0.95;;;21.60;61.90;;;;;;5053086;28;20507;-63
2022/06/10 09:41:25;;;;;;;2.00;0.80;;;21.60;61.90;;;;;;5051332;28;20158;-63
2022/06/10 09:43:57;;;;;;;3.50;1.00;;;21.60;61.90;;;;;;5051683;28;20488;-63
2022/06/10 09:46:39;;;;;;;3.20;0.80;;;21.60;61.90;;;;;;5053245;28;20048;-63
2022/06/10 09:49:26;;;;;;;2.70;0.90;;;21.60;62.00;;;;;;5051211;28;20048;-63
2022/06/10 09:52:24;;;;;;;2.40;0.90;;;21.60;62.00;;;;;;5071628;28;20076;-63
2022/06/10 09:55:17;;;;;;;2.83;0.70;;;21.60;62.00;;;;;;5070983;28;20087;-62
2022/06/10 09:58:21;;;;;;;3.80;1.00;;;21.60;62.00;;;;;;5071664;28;20123;-63
2022/06/10 10:01:02;;;;;;;2.75;0.95;;;21.50;61.90;;;;;;5030335;28;20041;-63
2022/06/10 10:03:44;;;;;;;3.08;1.05;;;21.60;62.10;;;;;;5069588;28;20060;-63
2022/06/10 10:06:35;;;;;;;1.63;0.73;;;21.60;62.10;;;;;;5072320;28;20048;-63
2022/06/10 10:09:21;;;;;;;3.38;0.93;;;21.50;62.10;;;;;;5069868;28;20419;-62
2022/06/10 10:12:19;;;;;;;5.05;1.10;;;21.50;62.00;;;;;;5071672;28;20044;-63
2022/06/10 10:14:51;;;;;;;;;;;21.50;62.10;;;;;;5072338;28;20139;-63
2022/06/10 10:17:55;;;;;;;2.78;0.70;;;21.50;62.10;;;;;;5070967;28;20015;-63
2022/06/10 10:20:29;;;;;;;4.05;0.90;;;21.50;62.10;;;;;;5030839;28;20041;-63
2022/06/10 10:23:25;;;;;;;3.00;1.00;;;21.50;62.20;;;;;;5029381;28;20592;-63
2022/06/10 10:25:51;;;;;;;3.05;1.00;;;21.50;62.20;;;;;;5054742;28;20064;-63
2022/06/10 10:28:26;;;;;;;3.20;0.80;;;21.50;62.20;;;;;;5071202;28;20032;-63
2022/06/10 10:31:10;;;;;;;3.15;0.85;;;21.50;62.10;;;;;;5070979;28;20048;-63
2022/06/10 10:33:36;;;;;;;3.33;0.95;;;21.50;62.20;;;;;;5071961;28;20511;-64
2022/06/10 10:36:01;;;;;;;2.92;1.00;;;21.60;62.30;;;;;;5071790;28;20040;-63
2022/06/10 10:38:36;;;;;;;2.05;0.70;;;21.60;62.40;;;;;;5071140;28;20523;-63
2022/06/10 10:41:26;;;;;;;3.10;1.13;;;21.60;62.40;;;;;;5072379;28;20044;-63
2022/06/10 10:43:53;;;;;;;3.88;0.80;;;21.60;62.40;;;;;;5071457;28;20076;-63
2022/06/10 10:46:48;;;;;;;3.45;0.70;;;21.60;62.30;;;;;;5070668;28;20052;-63
2022/06/10 10:49:30;;;;;;;3.70;0.93;;;21.70;62.30;;;;;;5059842;28;20052;-63
2022/06/10 10:51:55;;;;;;;3.05;1.00;;;21.70;62.20;;;;;;5051525;28;20056;-63
2022/06/10 10:54:24;;;;;;;2.53;0.90;;;21.70;62.20;;;;;;5052190;28;20033;-63
2022/06/10 10:56:49;;;;;;;1.63;0.80;;;21.70;62.10;;;;;;5057989;28;20235;-63
2022/06/10 10:59:32;;;;;;;2.35;0.90;;;21.70;62.10;;;;;;5071531;28;20086;-63
2022/06/10 11:01:58;;;;;;;2.97;0.90;;;21.80;62.10;;;;;;5071194;28;20040;-64
2022/06/10 11:04:33;;;;;;;3.13;0.80;;;21.80;62.00;;;;;;5073225;28;20051;-63
2022/06/10 11:07:10;;;;;;;3.92;0.80;;;21.80;62.00;;;;;;5075861;28;20076;-63
2022/06/10 11:09:49;;;;;;;2.30;0.90;;;21.80;62.00;;;;;;5076617;28;20119;-64
2022/06/10 11:12:19;;;;;;;3.28;1.05;;;21.80;62.00;;;;;;5075166;28;20041;-63
2022/06/10 11:14:46;;;;;;;2.53;0.75;;;21.90;62.00;;;;;;5074844;28;20415;-63
2022/06/10 11:17:12;;;;;;;2.78;0.90;;;21.90;62.00;;;;;;5074580;28;20044;-63
2022/06/10 11:19:40;;;;;;;5.72;1.00;;;21.90;62.00;;;;;;5075653;28;20053;-63
2022/06/10 11:22:23;;;;;;;2.65;0.77;;;21.90;61.90;;;;;;5075938;28;20036;-63
2022/06/10 11:25:03;;;;;;;3.97;1.00;;;21.90;62.00;;;;;;5075443;28;20056;-63
2022/06/10 11:27:35;;;;;;;2.63;0.90;;;21.90;62.00;;;;;;5075186;28;20066;-63
2022/06/10 11:30:10;;;;;;;2.92;0.80;;;21.90;61.90;;;;;;5074925;28;20053;-63
2022/06/10 11:32:39;;;;;;;2.03;0.90;;;21.90;62.00;;;;;;5074661;28;20551;-63
2022/06/10 11:35:41;;;;;;;4.65;1.23;;;21.90;62.00;;;;;;5074615;28;20055;-63
2022/06/10 11:38:21;;;;;;;2.17;0.73;;;21.90;62.00;;;;;;5053721;28;20082;-63
2022/06/10 11:40:47;;;;;;;1.58;0.73;;;21.90;62.00;;;;;;5073410;28;20044;-63
2022/06/10 11:43:33;;;;;;;4.75;1.13;;;22.00;62.00;;;;;;5075327;28;20127;-63
2022/06/10 11:46:05;;;;;;;6.25;1.15;;;22.00;62.00;;;;;;5074223;28;20041;-63
2022/06/10 11:48:54;;;;;;;2.22;0.70;;;22.00;62.00;;;;;;5073893;28;20098;-63
2022/06/10 11:51:38;;;;;;;3.05;0.88;;;22.00;62.00;;;;;;5074438;28;20049;-63
2022/06/10 11:54:18;;;;;;;4.22;0.93;;;22.00;62.00;;;;;;5056496;28;20056;-63
2022/06/10 11:59:54;;;;;;;3.42;0.93;;;22.00;62.00;;;;;;5074539;28;20131;-63
2022/06/10 12:02:36;;;;;;;2.42;0.95;;;22.10;62.00;;;;;;5074631;28;20123;-63
2022/06/10 12:05:16;;;;;;;6.05;0.80;;;22.00;61.90;;;;;;5073767;28;20123;-63
2022/06/10 12:08:05;;;;;;;2.22;0.80;;;22.10;62.00;;;;;;5073203;28;20044;-63
2022/06/10 12:10:42;;;;;;;3.33;0.60;;;22.10;62.00;;;;;;5072999;28;20067;-63
2022/06/10 12:13:09;;;;;;;2.55;0.95;;;22.10;62.00;;;;;;5072783;28;20037;-63
2022/06/10 12:15:36;;;;;;;3.35;0.90;;;22.10;61.90;;;;;;5072068;28;20047;-63
2022/06/10 12:18:03;;;;;;;4.53;1.20;;;22.10;61.90;;;;;;5072922;28;20040;-63
2022/06/10 12:20:43;;;;;;;3.00;1.00;;;22.10;62.00;;;;;;5073558;28;20047;-63
2022/06/10 12:23:21;;;;;;;3.30;0.90;;;22.10;62.00;;;;;;5072832;28;20053;-63
2022/06/10 12:26:13;;;;;;;3.08;0.93;;;22.10;62.00;;;;;;5056862;28;20123;-63
2022/06/10 12:28:46;;;;;;;1.30;0.70;;;22.10;62.00;;;;;;5072784;28;20063;-63
2022/06/10 12:31:32;;;;;;;1.40;0.70;;;22.10;62.00;;;;;;5073553;28;20044;-63
2022/06/10 12:34:14;;;;;;;2.25;1.00;;;22.00;62.00;;;;;;5074958;28;20416;-63
2022/06/10 12:36:42;;;;;;;2.95;0.73;;;22.00;62.00;;;;;;5073236;28;20193;-63
2022/06/10 12:39:39;;;;;;;2.75;1.02;;;22.00;62.00;;;;;;5074591;28;20045;-63
2022/06/10 12:42:36;;;;;;;2.78;0.80;;;22.00;62.00;;;;;;5072951;28;20049;-63
2022/06/10 12:45:02;;;;;;;3.25;0.93;;;22.00;62.00;;;;;;5073568;28;20048;-63
2022/06/10 12:47:38;;;;;;;3.40;0.98;;;22.00;62.10;;;;;;5073300;28;20052;-63
2022/06/10 12:50:28;;;;;;;2.83;0.60;;;22.00;62.20;;;;;;5072058;28;20530;-63
2022/06/10 12:53:15;;;;;;;3.58;0.93;;;22.00;62.20;;;;;;5072283;28;20051;-63
2022/06/10 12:55:49;;;;;;;3.93;0.90;;;22.00;62.20;;;;;;5072583;28;20044;-63
2022/06/10 12:58:37;;;;;;;4.68;0.80;;;22.00;62.20;;;;;;5068800;28;20033;-63
2022/06/10 13:01:18;;;;;;;2.30;0.88;;;22.00;62.10;;;;;;5053814;28;20081;-63
2022/06/10 13:03:44;;;;;;;3.38;1.10;;;22.00;62.20;;;;;;5072938;28;20499;-63
2022/06/10 13:06:26;;;;;;;2.58;0.80;;;21.90;62.20;;;;;;5074269;28;20052;-63
2022/06/10 13:08:53;;;;;;;2.20;0.85;;;22.00;62.20;;;;;;5073868;28;20071;-63
2022/06/10 13:11:32;;;;;;;4.10;1.15;;;22.00;62.30;;;;;;5073455;28;20512;-63
2022/06/10 13:14:22;;;;;;;4.80;0.90;;;22.00;62.30;;;;;;5073311;28;20037;-63
2022/06/10 13:17:00;;;;;;;2.13;0.90;;;22.00;62.30;;;;;;5073260;28;20373;-63
2022/06/10 13:19:51;;;;;;;4.05;1.00;;;22.00;62.30;;;;;;5073163;28;20040;-63
2022/06/10 13:22:19;;;;;;;3.15;0.80;;;22.00;62.30;;;;;;5073949;28;20037;-63
2022/06/10 13:24:54;;;;;;;3.67;0.90;;;22.00;62.30;;;;;;5073136;28;20105;-63
2022/06/10 13:27:26;;;;;;;2.55;0.95;;;22.00;62.30;;;;;;5072494;28;20048;-63
2022/06/10 13:30:00;;;;;;;2.17;0.90;;;22.00;62.40;;;;;;5073099;28;20131;-63
2022/06/10 13:32:27;;;;;;;2.83;0.80;;;22.00;62.40;;;;;;5068969;28;20060;-63